sensor_id;sensor_type;location;lat;lon;timestamp;temperature;humidity
439;DHT22;206;48.782;9.252;2023-05-23T00:01:02;19.80;57.90
439;DHT22;206;48.782;9.252;2023-05-23T00:03:31;19.80;58.70
439;DHT22;206;48.782;9.252;2023-05-23T00:05:57;19.70;59.20
439;DHT22;206;48.782;9.252;2023-05-23T00:08:24;19.70;59.50
439;DHT22;206;48.782;9.252;2023-05-23T00:10:49;19.70;60.00
439;DHT22;206;48.782;9.252;2023-05-23T00:13:15;19.80;60.40
439;DHT22;206;48.782;9.252;2023-05-23T00:15:42;19.70;61.10
439;DHT22;206;48.782;9.252;2023-05-23T00:18:08;19.70;62.80
439;DHT22;206;48.782;9.252;2023-05-23T00:20:36;19.60;62.30
439;DHT22;206;48.782;9.252;2023-05-23T00:23:01;19.60;63.40
439;DHT22;206;48.782;9.252;2023-05-23T00:25:28;19.60;64.10
439;DHT22;206;48.782;9.252;2023-05-23T00:27:59;19.60;64.30
439;DHT22;206;48.782;9.252;2023-05-23T00:30:25;19.60;65.00
439;DHT22;206;48.782;9.252;2023-05-23T00:32:50;19.50;65.50
439;DHT22;206;48.782;9.252;2023-05-23T00:35:19;19.50;66.40
439;DHT22;206;48.782;9.252;2023-05-23T00:37:45;19.50;67.00
439;DHT22;206;48.782;9.252;2023-05-23T00:40:11;19.50;67.70
439;DHT22;206;48.782;9.252;2023-05-23T00:42:37;19.40;67.80
439;DHT22;206;48.782;9.252;2023-05-23T00:45:03;19.40;68.30
439;DHT22;206;48.782;9.252;2023-05-23T00:47:28;19.40;68.80
439;DHT22;206;48.782;9.252;2023-05-23T00:49:54;19.30;69.20
439;DHT22;206;48.782;9.252;2023-05-23T00:52:19;19.30;69.40
439;DHT22;206;48.782;9.252;2023-05-23T00:54:45;19.30;70.00
439;DHT22;206;48.782;9.252;2023-05-23T00:57:11;19.30;70.20
439;DHT22;206;48.782;9.252;2023-05-23T00:59:37;19.20;70.20
439;DHT22;206;48.782;9.252;2023-05-23T01:02:03;19.30;71.60
439;DHT22;206;48.782;9.252;2023-05-23T01:04:29;19.20;71.70
439;DHT22;206;48.782;9.252;2023-05-23T01:06:58;19.20;71.80
439;DHT22;206;48.782;9.252;2023-05-23T01:09:26;19.10;71.60
439;DHT22;206;48.782;9.252;2023-05-23T01:14:28;19.20;71.70
439;DHT22;206;48.782;9.252;2023-05-23T01:17:16;19.10;71.60
439;DHT22;206;48.782;9.252;2023-05-23T01:19:47;19.20;71.70
439;DHT22;206;48.782;9.252;2023-05-23T01:22:36;19.20;72.10
439;DHT22;206;48.782;9.252;2023-05-23T01:27:52;19.10;71.70
439;DHT22;206;48.782;9.252;2023-05-23T01:30:20;19.10;72.10
439;DHT22;206;48.782;9.252;2023-05-23T01:32:47;19.10;72.20
439;DHT22;206;48.782;9.252;2023-05-23T01:35:24;19.00;72.70
439;DHT22;206;48.782;9.252;2023-05-23T01:37:54;19.00;73.00
439;DHT22;206;48.782;9.252;2023-05-23T01:40:21;18.90;73.20
439;DHT22;206;48.782;9.252;2023-05-23T01:42:47;19.00;73.50
439;DHT22;206;48.782;9.252;2023-05-23T01:45:13;18.90;73.80
439;DHT22;206;48.782;9.252;2023-05-23T01:47:39;19.00;73.70
439;DHT22;206;48.782;9.252;2023-05-23T01:50:07;19.00;73.70
439;DHT22;206;48.782;9.252;2023-05-23T01:52:33;19.00;73.40
439;DHT22;206;48.782;9.252;2023-05-23T01:55:00;19.00;73.50
439;DHT22;206;48.782;9.252;2023-05-23T01:57:28;19.10;73.00
439;DHT22;206;48.782;9.252;2023-05-23T01:59:55;19.10;72.90
439;DHT22;206;48.782;9.252;2023-05-23T02:02:21;19.10;72.20
439;DHT22;206;48.782;9.252;2023-05-23T02:04:48;19.10;71.90
439;DHT22;206;48.782;9.252;2023-05-23T02:07:13;19.10;72.00
439;DHT22;206;48.782;9.252;2023-05-23T02:09:39;19.10;71.90
439;DHT22;206;48.782;9.252;2023-05-23T02:12:05;19.10;72.20
439;DHT22;206;48.782;9.252;2023-05-23T02:14:31;19.00;72.60
439;DHT22;206;48.782;9.252;2023-05-23T02:16:56;19.00;72.60
439;DHT22;206;48.782;9.252;2023-05-23T02:19:22;19.10;72.40
439;DHT22;206;48.782;9.252;2023-05-23T02:21:47;19.10;72.10
439;DHT22;206;48.782;9.252;2023-05-23T02:24:13;19.10;71.60
439;DHT22;206;48.782;9.252;2023-05-23T02:26:38;19.10;71.60
439;DHT22;206;48.782;9.252;2023-05-23T02:29:04;19.10;71.60
439;DHT22;206;48.782;9.252;2023-05-23T02:31:30;19.10;71.70
439;DHT22;206;48.782;9.252;2023-05-23T02:33:55;19.10;72.20
439;DHT22;206;48.782;9.252;2023-05-23T02:36:21;19.10;71.60
439;DHT22;206;48.782;9.252;2023-05-23T02:38:46;19.10;71.70
439;DHT22;206;48.782;9.252;2023-05-23T02:41:12;19.00;71.70
439;DHT22;206;48.782;9.252;2023-05-23T02:43:38;19.00;71.70
439;DHT22;206;48.782;9.252;2023-05-23T02:46:03;19.00;71.60
439;DHT22;206;48.782;9.252;2023-05-23T02:48:29;19.00;71.90
439;DHT22;206;48.782;9.252;2023-05-23T02:50:55;19.10;71.60
439;DHT22;206;48.782;9.252;2023-05-23T02:53:20;19.10;71.70
439;DHT22;206;48.782;9.252;2023-05-23T02:55:46;19.20;71.50
439;DHT22;206;48.782;9.252;2023-05-23T02:58:12;19.20;70.30
439;DHT22;206;48.782;9.252;2023-05-23T03:00:37;19.30;69.80
439;DHT22;206;48.782;9.252;2023-05-23T03:03:03;19.30;69.00
439;DHT22;206;48.782;9.252;2023-05-23T03:05:29;19.40;68.30
439;DHT22;206;48.782;9.252;2023-05-23T03:07:55;19.40;67.90
439;DHT22;206;48.782;9.252;2023-05-23T03:10:22;19.50;67.00
439;DHT22;206;48.782;9.252;2023-05-23T03:12:47;19.50;67.00
439;DHT22;206;48.782;9.252;2023-05-23T03:15:13;19.50;67.00
439;DHT22;206;48.782;9.252;2023-05-23T03:17:38;19.50;66.80
439;DHT22;206;48.782;9.252;2023-05-23T03:20:04;19.50;66.00
439;DHT22;206;48.782;9.252;2023-05-23T03:22:34;19.50;65.80
439;DHT22;206;48.782;9.252;2023-05-23T03:24:59;19.50;66.00
439;DHT22;206;48.782;9.252;2023-05-23T03:27:25;19.50;66.00
439;DHT22;206;48.782;9.252;2023-05-23T03:29:51;19.60;65.70
439;DHT22;206;48.782;9.252;2023-05-23T03:32:16;19.60;64.90
439;DHT22;206;48.782;9.252;2023-05-23T03:34:42;19.60;64.90
439;DHT22;206;48.782;9.252;2023-05-23T03:37:07;19.60;64.90
439;DHT22;206;48.782;9.252;2023-05-23T03:39:33;19.60;64.60
439;DHT22;206;48.782;9.252;2023-05-23T03:41:58;19.60;65.10
439;DHT22;206;48.782;9.252;2023-05-23T03:44:24;19.60;64.40
439;DHT22;206;48.782;9.252;2023-05-23T03:46:50;19.50;65.00
439;DHT22;206;48.782;9.252;2023-05-23T03:49:15;19.50;64.90
439;DHT22;206;48.782;9.252;2023-05-23T03:51:41;19.50;64.60
439;DHT22;206;48.782;9.252;2023-05-23T03:54:06;19.40;65.10
439;DHT22;206;48.782;9.252;2023-05-23T03:56:32;19.40;65.60
439;DHT22;206;48.782;9.252;2023-05-23T03:58:57;19.40;65.90
439;DHT22;206;48.782;9.252;2023-05-23T04:01:23;19.40;66.00
439;DHT22;206;48.782;9.252;2023-05-23T04:03:49;19.40;65.70
439;DHT22;206;48.782;9.252;2023-05-23T04:06:15;19.30;66.00
439;DHT22;206;48.782;9.252;2023-05-23T04:08:42;19.30;66.40
439;DHT22;206;48.782;9.252;2023-05-23T04:11:08;19.30;66.80
439;DHT22;206;48.782;9.252;2023-05-23T04:13:34;19.40;66.50
439;DHT22;206;48.782;9.252;2023-05-23T04:16:00;19.40;66.30
439;DHT22;206;48.782;9.252;2023-05-23T04:18:30;19.40;65.10
439;DHT22;206;48.782;9.252;2023-05-23T04:20:58;19.40;65.10
439;DHT22;206;48.782;9.252;2023-05-23T04:23:24;19.40;65.10
439;DHT22;206;48.782;9.252;2023-05-23T04:25:50;19.50;65.00
439;DHT22;206;48.782;9.252;2023-05-23T04:28:16;19.50;64.40
439;DHT22;206;48.782;9.252;2023-05-23T04:30:42;19.50;64.10
439;DHT22;206;48.782;9.252;2023-05-23T04:33:07;19.50;64.30
439;DHT22;206;48.782;9.252;2023-05-23T04:35:34;19.50;64.60
439;DHT22;206;48.782;9.252;2023-05-23T04:38:03;19.50;64.40
439;DHT22;206;48.782;9.252;2023-05-23T04:40:29;19.50;64.40
439;DHT22;206;48.782;9.252;2023-05-23T04:42:55;19.50;64.70
439;DHT22;206;48.782;9.252;2023-05-23T04:45:21;19.50;64.60
439;DHT22;206;48.782;9.252;2023-05-23T04:47:47;19.50;64.70
439;DHT22;206;48.782;9.252;2023-05-23T04:50:12;19.50;64.60
439;DHT22;206;48.782;9.252;2023-05-23T04:52:41;19.60;63.80
439;DHT22;206;48.782;9.252;2023-05-23T04:55:07;19.50;63.70
439;DHT22;206;48.782;9.252;2023-05-23T04:57:36;19.50;63.90
439;DHT22;206;48.782;9.252;2023-05-23T05:00:02;19.60;63.10
439;DHT22;206;48.782;9.252;2023-05-23T05:02:33;19.60;63.20
439;DHT22;206;48.782;9.252;2023-05-23T05:04:59;19.60;63.40
439;DHT22;206;48.782;9.252;2023-05-23T05:07:25;19.60;63.50
439;DHT22;206;48.782;9.252;2023-05-23T05:09:50;19.60;63.30
439;DHT22;206;48.782;9.252;2023-05-23T05:12:16;19.60;63.20
439;DHT22;206;48.782;9.252;2023-05-23T05:14:42;19.60;62.90
439;DHT22;206;48.782;9.252;2023-05-23T05:17:07;19.60;62.60
439;DHT22;206;48.782;9.252;2023-05-23T05:19:33;19.60;63.50
439;DHT22;206;48.782;9.252;2023-05-23T05:21:58;19.60;64.00
439;DHT22;206;48.782;9.252;2023-05-23T05:24:24;19.50;64.10
439;DHT22;206;48.782;9.252;2023-05-23T05:26:52;19.50;64.10
439;DHT22;206;48.782;9.252;2023-05-23T05:29:18;19.40;64.50
439;DHT22;206;48.782;9.252;2023-05-23T05:31:43;19.40;65.20
439;DHT22;206;48.782;9.252;2023-05-23T05:34:10;19.40;65.70
439;DHT22;206;48.782;9.252;2023-05-23T05:36:35;19.50;65.30
439;DHT22;206;48.782;9.252;2023-05-23T05:39:01;19.60;64.70
439;DHT22;206;48.782;9.252;2023-05-23T05:41:26;19.60;63.10
439;DHT22;206;48.782;9.252;2023-05-23T05:43:52;19.60;62.80
439;DHT22;206;48.782;9.252;2023-05-23T05:46:18;19.60;62.30
439;DHT22;206;48.782;9.252;2023-05-23T05:48:45;19.70;62.10
439;DHT22;206;48.782;9.252;2023-05-23T05:51:10;19.70;62.10
439;DHT22;206;48.782;9.252;2023-05-23T05:53:36;19.70;61.50
439;DHT22;206;48.782;9.252;2023-05-23T05:56:02;19.70;62.10
439;DHT22;206;48.782;9.252;2023-05-23T05:58:27;19.70;62.80
439;DHT22;206;48.782;9.252;2023-05-23T06:00:53;19.70;62.10
439;DHT22;206;48.782;9.252;2023-05-23T06:03:19;19.80;61.50
439;DHT22;206;48.782;9.252;2023-05-23T06:05:45;19.90;60.50
439;DHT22;206;48.782;9.252;2023-05-23T06:08:10;20.10;60.30
439;DHT22;206;48.782;9.252;2023-05-23T06:10:39;20.20;58.00
439;DHT22;206;48.782;9.252;2023-05-23T06:13:04;20.20;57.60
439;DHT22;206;48.782;9.252;2023-05-23T06:15:30;20.30;57.20
439;DHT22;206;48.782;9.252;2023-05-23T06:17:56;20.30;56.60
439;DHT22;206;48.782;9.252;2023-05-23T06:20:21;20.30;56.90
439;DHT22;206;48.782;9.252;2023-05-23T06:22:47;20.40;56.20
439;DHT22;206;48.782;9.252;2023-05-23T06:25:12;20.50;55.70
439;DHT22;206;48.782;9.252;2023-05-23T06:27:38;20.60;55.10
439;DHT22;206;48.782;9.252;2023-05-23T06:30:04;20.70;54.10
439;DHT22;206;48.782;9.252;2023-05-23T06:32:30;20.80;53.30
439;DHT22;206;48.782;9.252;2023-05-23T06:34:55;20.70;52.60
439;DHT22;206;48.782;9.252;2023-05-23T06:37:21;20.70;52.60
439;DHT22;206;48.782;9.252;2023-05-23T06:39:47;20.70;52.60
439;DHT22;206;48.782;9.252;2023-05-23T06:42:12;20.70;53.20
439;DHT22;206;48.782;9.252;2023-05-23T06:44:38;20.80;52.20
439;DHT22;206;48.782;9.252;2023-05-23T06:47:03;20.70;52.80
439;DHT22;206;48.782;9.252;2023-05-23T06:49:29;20.60;53.10
439;DHT22;206;48.782;9.252;2023-05-23T06:51:54;20.40;54.50
439;DHT22;206;48.782;9.252;2023-05-23T06:54:20;20.20;55.80
439;DHT22;206;48.782;9.252;2023-05-23T06:56:46;20.20;56.10
439;DHT22;206;48.782;9.252;2023-05-23T06:59:11;20.20;56.30
439;DHT22;206;48.782;9.252;2023-05-23T07:01:37;20.10;56.80
439;DHT22;206;48.782;9.252;2023-05-23T07:04:02;20.10;56.90
439;DHT22;206;48.782;9.252;2023-05-23T07:06:28;20.10;56.30
439;DHT22;206;48.782;9.252;2023-05-23T07:08:54;20.20;56.50
439;DHT22;206;48.782;9.252;2023-05-23T07:11:22;20.10;56.00
439;DHT22;206;48.782;9.252;2023-05-23T07:13:48;20.00;57.30
439;DHT22;206;48.782;9.252;2023-05-23T07:16:14;19.90;57.40
439;DHT22;206;48.782;9.252;2023-05-23T07:18:39;19.80;57.80
439;DHT22;206;48.782;9.252;2023-05-23T07:21:05;19.80;58.00
439;DHT22;206;48.782;9.252;2023-05-23T07:23:34;19.80;58.30
439;DHT22;206;48.782;9.252;2023-05-23T07:26:00;19.70;57.70
439;DHT22;206;48.782;9.252;2023-05-23T07:28:27;19.70;57.80
439;DHT22;206;48.782;9.252;2023-05-23T07:30:53;19.70;57.40
439;DHT22;206;48.782;9.252;2023-05-23T07:33:18;19.60;56.10
439;DHT22;206;48.782;9.252;2023-05-23T07:35:44;19.60;54.10
439;DHT22;206;48.782;9.252;2023-05-23T07:38:10;19.60;53.70
439;DHT22;206;48.782;9.252;2023-05-23T07:40:35;19.60;53.50
439;DHT22;206;48.782;9.252;2023-05-23T07:43:03;19.60;52.30
439;DHT22;206;48.782;9.252;2023-05-23T07:45:28;19.60;52.60
439;DHT22;206;48.782;9.252;2023-05-23T07:47:54;19.50;52.20
439;DHT22;206;48.782;9.252;2023-05-23T07:50:20;19.50;49.60
439;DHT22;206;48.782;9.252;2023-05-23T07:52:46;19.50;49.50
439;DHT22;206;48.782;9.252;2023-05-23T07:55:11;19.40;49.70
439;DHT22;206;48.782;9.252;2023-05-23T07:57:37;19.20;51.30
439;DHT22;206;48.782;9.252;2023-05-23T08:00:03;19.30;52.00
439;DHT22;206;48.782;9.252;2023-05-23T08:02:30;19.30;51.00
439;DHT22;206;48.782;9.252;2023-05-23T08:04:55;19.50;50.60
439;DHT22;206;48.782;9.252;2023-05-23T08:07:21;19.60;50.60
439;DHT22;206;48.782;9.252;2023-05-23T08:09:47;19.70;50.50
439;DHT22;206;48.782;9.252;2023-05-23T08:12:12;19.90;49.50
439;DHT22;206;48.782;9.252;2023-05-23T08:14:38;20.00;49.20
439;DHT22;206;48.782;9.252;2023-05-23T08:17:04;20.00;48.10
439;DHT22;206;48.782;9.252;2023-05-23T08:19:30;19.90;47.30
439;DHT22;206;48.782;9.252;2023-05-23T08:21:55;19.90;47.20
439;DHT22;206;48.782;9.252;2023-05-23T08:24:21;19.80;46.60
439;DHT22;206;48.782;9.252;2023-05-23T08:26:47;19.60;47.60
439;DHT22;206;48.782;9.252;2023-05-23T08:29:13;19.50;46.50
439;DHT22;206;48.782;9.252;2023-05-23T08:31:39;19.50;46.40
439;DHT22;206;48.782;9.252;2023-05-23T08:34:05;19.60;45.90
439;DHT22;206;48.782;9.252;2023-05-23T08:36:30;19.60;45.00
439;DHT22;206;48.782;9.252;2023-05-23T08:39:00;19.70;44.90
439;DHT22;206;48.782;9.252;2023-05-23T08:41:26;19.80;44.30
439;DHT22;206;48.782;9.252;2023-05-23T08:43:52;19.90;43.80
439;DHT22;206;48.782;9.252;2023-05-23T08:46:18;20.10;42.50
439;DHT22;206;48.782;9.252;2023-05-23T08:48:52;20.30;41.20
439;DHT22;206;48.782;9.252;2023-05-23T08:51:20;20.20;40.60
439;DHT22;206;48.782;9.252;2023-05-23T08:53:47;20.20;40.50
439;DHT22;206;48.782;9.252;2023-05-23T08:56:14;20.10;41.10
439;DHT22;206;48.782;9.252;2023-05-23T08:58:41;20.10;41.30
439;DHT22;206;48.782;9.252;2023-05-23T09:01:08;20.20;40.70
439;DHT22;206;48.782;9.252;2023-05-23T09:03:38;20.20;40.20
439;DHT22;206;48.782;9.252;2023-05-23T09:06:08;20.30;40.00
439;DHT22;206;48.782;9.252;2023-05-23T09:08:35;20.10;40.00
439;DHT22;206;48.782;9.252;2023-05-23T09:11:02;20.10;39.70
439;DHT22;206;48.782;9.252;2023-05-23T09:13:29;20.20;39.60
439;DHT22;206;48.782;9.252;2023-05-23T09:18:33;20.30;38.30
439;DHT22;206;48.782;9.252;2023-05-23T09:21:01;20.20;37.80
439;DHT22;206;48.782;9.252;2023-05-23T09:23:32;20.20;37.60
439;DHT22;206;48.782;9.252;2023-05-23T09:26:03;20.10;38.00
439;DHT22;206;48.782;9.252;2023-05-23T09:28:29;20.00;38.20
439;DHT22;206;48.782;9.252;2023-05-23T09:30:59;19.80;39.50
439;DHT22;206;48.782;9.252;2023-05-23T09:33:47;19.70;40.30
439;DHT22;206;48.782;9.252;2023-05-23T09:36:13;19.70;40.20
439;DHT22;206;48.782;9.252;2023-05-23T09:38:41;19.60;40.30
439;DHT22;206;48.782;9.252;2023-05-23T09:41:07;19.60;40.90
439;DHT22;206;48.782;9.252;2023-05-23T09:43:37;19.60;40.80
439;DHT22;206;48.782;9.252;2023-05-23T09:46:10;19.70;40.00
439;DHT22;206;48.782;9.252;2023-05-23T09:48:36;19.90;39.70
439;DHT22;206;48.782;9.252;2023-05-23T09:51:09;20.00;39.70
439;DHT22;206;48.782;9.252;2023-05-23T09:53:35;20.20;38.90
439;DHT22;206;48.782;9.252;2023-05-23T09:56:03;20.20;37.30
439;DHT22;206;48.782;9.252;2023-05-23T09:58:32;20.30;36.60
439;DHT22;206;48.782;9.252;2023-05-23T10:00:59;20.20;36.70
439;DHT22;206;48.782;9.252;2023-05-23T10:03:34;20.10;36.90
439;DHT22;206;48.782;9.252;2023-05-23T10:06:09;20.10;36.70
439;DHT22;206;48.782;9.252;2023-05-23T10:08:43;19.90;36.60
439;DHT22;206;48.782;9.252;2023-05-23T10:13:41;19.80;38.10
439;DHT22;206;48.782;9.252;2023-05-23T10:18:44;19.90;37.00
439;DHT22;206;48.782;9.252;2023-05-23T10:21:18;20.00;36.60
439;DHT22;206;48.782;9.252;2023-05-23T10:23:46;20.20;36.30
439;DHT22;206;48.782;9.252;2023-05-23T10:26:12;20.50;35.10
439;DHT22;206;48.782;9.252;2023-05-23T10:28:39;20.70;34.40
439;DHT22;206;48.782;9.252;2023-05-23T10:31:06;21.10;33.40
439;DHT22;206;48.782;9.252;2023-05-23T10:33:37;21.20;31.90
439;DHT22;206;48.782;9.252;2023-05-23T10:36:21;21.10;31.90
439;DHT22;206;48.782;9.252;2023-05-23T10:38:57;21.10;32.00
439;DHT22;206;48.782;9.252;2023-05-23T10:44:32;21.00;32.20
439;DHT22;206;48.782;9.252;2023-05-23T10:46:59;21.10;31.60
439;DHT22;206;48.782;9.252;2023-05-23T10:49:45;21.00;31.60
439;DHT22;206;48.782;9.252;2023-05-23T10:52:13;21.10;31.20
439;DHT22;206;48.782;9.252;2023-05-23T10:54:44;21.20;30.30
439;DHT22;206;48.782;9.252;2023-05-23T10:57:14;21.40;30.40
439;DHT22;206;48.782;9.252;2023-05-23T10:59:41;21.50;29.00
439;DHT22;206;48.782;9.252;2023-05-23T11:02:12;21.60;29.00
439;DHT22;206;48.782;9.252;2023-05-23T11:04:39;21.50;28.90
439;DHT22;206;48.782;9.252;2023-05-23T11:07:04;21.60;28.80
439;DHT22;206;48.782;9.252;2023-05-23T11:09:30;21.60;29.30
439;DHT22;206;48.782;9.252;2023-05-23T11:12:03;21.50;29.00
439;DHT22;206;48.782;9.252;2023-05-23T11:19:38;21.60;28.10
439;DHT22;206;48.782;9.252;2023-05-23T11:22:07;21.80;26.90
439;DHT22;206;48.782;9.252;2023-05-23T11:24:53;22.00;26.50
439;DHT22;206;48.782;9.252;2023-05-23T11:30:13;21.80;25.80
439;DHT22;206;48.782;9.252;2023-05-23T11:32:40;22.00;25.90
439;DHT22;206;48.782;9.252;2023-05-23T11:35:08;22.20;25.30
439;DHT22;206;48.782;9.252;2023-05-23T11:37:37;22.20;25.00
439;DHT22;206;48.782;9.252;2023-05-23T11:42:50;22.10;25.30
439;DHT22;206;48.782;9.252;2023-05-23T11:45:18;22.00;25.20
439;DHT22;206;48.782;9.252;2023-05-23T11:47:44;22.00;25.20
439;DHT22;206;48.782;9.252;2023-05-23T11:50:10;22.00;25.80
439;DHT22;206;48.782;9.252;2023-05-23T11:52:35;22.10;25.80
439;DHT22;206;48.782;9.252;2023-05-23T11:55:01;22.00;26.30
439;DHT22;206;48.782;9.252;2023-05-23T11:57:27;22.10;26.40
439;DHT22;206;48.782;9.252;2023-05-23T11:59:53;22.20;26.20
439;DHT22;206;48.782;9.252;2023-05-23T12:02:20;22.30;26.50
439;DHT22;206;48.782;9.252;2023-05-23T12:04:47;22.60;25.60
439;DHT22;206;48.782;9.252;2023-05-23T12:07:13;22.80;25.40
439;DHT22;206;48.782;9.252;2023-05-23T12:09:43;23.10;24.20
439;DHT22;206;48.782;9.252;2023-05-23T12:12:09;23.50;23.70
439;DHT22;206;48.782;9.252;2023-05-23T12:14:35;23.40;23.70
439;DHT22;206;48.782;9.252;2023-05-23T12:17:03;23.30;22.90
439;DHT22;206;48.782;9.252;2023-05-23T12:19:29;23.20;22.70
439;DHT22;206;48.782;9.252;2023-05-23T12:21:55;23.00;22.20
439;DHT22;206;48.782;9.252;2023-05-23T12:24:22;23.30;22.90
439;DHT22;206;48.782;9.252;2023-05-23T12:26:52;23.70;22.20
439;DHT22;206;48.782;9.252;2023-05-23T12:29:19;23.30;21.60
439;DHT22;206;48.782;9.252;2023-05-23T12:31:49;23.30;21.80
439;DHT22;206;48.782;9.252;2023-05-23T12:34:16;23.40;21.60
439;DHT22;206;48.782;9.252;2023-05-23T12:36:41;23.60;21.20
439;DHT22;206;48.782;9.252;2023-05-23T12:39:08;23.80;21.10
439;DHT22;206;48.782;9.252;2023-05-23T12:41:34;23.90;20.60
439;DHT22;206;48.782;9.252;2023-05-23T12:44:01;24.20;20.30
439;DHT22;206;48.782;9.252;2023-05-23T12:46:27;24.20;20.20
439;DHT22;206;48.782;9.252;2023-05-23T12:48:53;24.10;19.80
439;DHT22;206;48.782;9.252;2023-05-23T12:51:19;24.00;20.20
439;DHT22;206;48.782;9.252;2023-05-23T12:53:45;23.80;20.90
439;DHT22;206;48.782;9.252;2023-05-23T12:56:11;23.60;21.30
439;DHT22;206;48.782;9.252;2023-05-23T12:58:36;23.70;21.60
439;DHT22;206;48.782;9.252;2023-05-23T13:01:02;23.80;21.20
439;DHT22;206;48.782;9.252;2023-05-23T13:03:28;23.70;21.30
439;DHT22;206;48.782;9.252;2023-05-23T13:05:58;23.30;21.90
439;DHT22;206;48.782;9.252;2023-05-23T13:08:24;23.20;22.30
439;DHT22;206;48.782;9.252;2023-05-23T13:10:52;23.20;22.10
439;DHT22;206;48.782;9.252;2023-05-23T13:13:18;23.40;22.00
439;DHT22;206;48.782;9.252;2023-05-23T13:15:44;23.40;22.00
439;DHT22;206;48.782;9.252;2023-05-23T13:18:09;23.50;21.50
439;DHT22;206;48.782;9.252;2023-05-23T13:20:35;23.70;21.00
439;DHT22;206;48.782;9.252;2023-05-23T13:23:02;23.60;21.30
439;DHT22;206;48.782;9.252;2023-05-23T13:25:28;23.70;21.40
439;DHT22;206;48.782;9.252;2023-05-23T13:27:54;24.00;20.80
439;DHT22;206;48.782;9.252;2023-05-23T13:30:20;23.80;20.90
439;DHT22;206;48.782;9.252;2023-05-23T13:32:46;23.30;21.60
439;DHT22;206;48.782;9.252;2023-05-23T13:35:12;23.00;22.30
439;DHT22;206;48.782;9.252;2023-05-23T13:37:37;22.70;22.90
439;DHT22;206;48.782;9.252;2023-05-23T13:40:03;22.60;23.10
439;DHT22;206;48.782;9.252;2023-05-23T13:42:30;22.40;23.80
439;DHT22;206;48.782;9.252;2023-05-23T13:44:55;22.30;24.00
439;DHT22;206;48.782;9.252;2023-05-23T13:47:21;22.20;24.50
439;DHT22;206;48.782;9.252;2023-05-23T13:49:47;22.10;25.20
439;DHT22;206;48.782;9.252;2023-05-23T13:52:13;22.00;25.20
439;DHT22;206;48.782;9.252;2023-05-23T13:54:38;22.00;25.20
439;DHT22;206;48.782;9.252;2023-05-23T13:57:04;22.10;25.30
439;DHT22;206;48.782;9.252;2023-05-23T13:59:31;22.10;25.30
439;DHT22;206;48.782;9.252;2023-05-23T14:01:56;22.10;25.30
439;DHT22;206;48.782;9.252;2023-05-23T14:04:22;22.30;25.70
439;DHT22;206;48.782;9.252;2023-05-23T14:06:48;22.20;24.70
439;DHT22;206;48.782;9.252;2023-05-23T14:09:14;22.20;25.10
439;DHT22;206;48.782;9.252;2023-05-23T14:11:40;22.40;25.10
439;DHT22;206;48.782;9.252;2023-05-23T14:14:05;22.70;24.20
439;DHT22;206;48.782;9.252;2023-05-23T14:16:31;23.10;23.40
439;DHT22;206;48.782;9.252;2023-05-23T14:18:56;23.10;23.10
439;DHT22;206;48.782;9.252;2023-05-23T14:21:22;23.30;22.80
439;DHT22;206;48.782;9.252;2023-05-23T14:23:48;23.40;22.60
439;DHT22;206;48.782;9.252;2023-05-23T14:26:14;23.50;22.10
439;DHT22;206;48.782;9.252;2023-05-23T14:28:39;23.60;21.70
439;DHT22;206;48.782;9.252;2023-05-23T14:31:05;23.70;21.60
439;DHT22;206;48.782;9.252;2023-05-23T14:33:31;23.70;21.90
439;DHT22;206;48.782;9.252;2023-05-23T14:36:03;23.70;21.90
439;DHT22;206;48.782;9.252;2023-05-23T14:38:28;23.60;22.10
439;DHT22;206;48.782;9.252;2023-05-23T14:40:54;23.30;22.70
439;DHT22;206;48.782;9.252;2023-05-23T14:43:20;23.30;23.10
439;DHT22;206;48.782;9.252;2023-05-23T14:45:46;23.30;23.00
439;DHT22;206;48.782;9.252;2023-05-23T14:48:11;23.40;22.90
439;DHT22;206;48.782;9.252;2023-05-23T14:50:37;23.40;23.00
439;DHT22;206;48.782;9.252;2023-05-23T14:53:02;23.30;23.10
439;DHT22;206;48.782;9.252;2023-05-23T14:55:28;23.10;23.10
439;DHT22;206;48.782;9.252;2023-05-23T14:57:54;23.00;22.10
439;DHT22;206;48.782;9.252;2023-05-23T15:00:21;22.90;20.50
439;DHT22;206;48.782;9.252;2023-05-23T15:02:47;22.60;20.30
439;DHT22;206;48.782;9.252;2023-05-23T15:05:12;22.50;20.40
439;DHT22;206;48.782;9.252;2023-05-23T15:07:39;22.50;20.80
439;DHT22;206;48.782;9.252;2023-05-23T15:10:05;22.50;21.40
439;DHT22;206;48.782;9.252;2023-05-23T15:12:32;22.30;22.10
439;DHT22;206;48.782;9.252;2023-05-23T15:14:58;22.50;22.20
439;DHT22;206;48.782;9.252;2023-05-23T15:17:34;22.90;21.40
439;DHT22;206;48.782;9.252;2023-05-23T15:20:00;23.20;21.00
439;DHT22;206;48.782;9.252;2023-05-23T15:22:27;23.40;20.20
439;DHT22;206;48.782;9.252;2023-05-23T15:24:53;23.30;20.70
439;DHT22;206;48.782;9.252;2023-05-23T15:27:18;23.50;21.00
439;DHT22;206;48.782;9.252;2023-05-23T15:29:46;23.60;20.90
439;DHT22;206;48.782;9.252;2023-05-23T15:32:12;23.40;21.40
439;DHT22;206;48.782;9.252;2023-05-23T15:34:37;23.10;22.00
439;DHT22;206;48.782;9.252;2023-05-23T15:37:03;22.90;23.10
439;DHT22;206;48.782;9.252;2023-05-23T15:39:29;22.70;22.80
439;DHT22;206;48.782;9.252;2023-05-23T15:41:54;22.70;22.60
439;DHT22;206;48.782;9.252;2023-05-23T15:44:20;22.70;21.50
439;DHT22;206;48.782;9.252;2023-05-23T15:46:47;22.70;21.30
439;DHT22;206;48.782;9.252;2023-05-23T15:49:13;22.60;21.90
439;DHT22;206;48.782;9.252;2023-05-23T15:51:38;22.40;23.00
439;DHT22;206;48.782;9.252;2023-05-23T15:54:04;22.40;23.70
439;DHT22;206;48.782;9.252;2023-05-23T15:56:30;22.70;23.10
439;DHT22;206;48.782;9.252;2023-05-23T15:58:55;23.00;22.10
439;DHT22;206;48.782;9.252;2023-05-23T16:01:21;23.20;21.60
439;DHT22;206;48.782;9.252;2023-05-23T16:03:47;23.30;20.80
439;DHT22;206;48.782;9.252;2023-05-23T16:06:13;23.40;20.20
439;DHT22;206;48.782;9.252;2023-05-23T16:08:38;23.50;20.10
439;DHT22;206;48.782;9.252;2023-05-23T16:11:04;23.50;19.80
439;DHT22;206;48.782;9.252;2023-05-23T16:13:30;23.40;20.30
439;DHT22;206;48.782;9.252;2023-05-23T16:15:55;23.30;20.70
439;DHT22;206;48.782;9.252;2023-05-23T16:18:21;23.50;20.70
439;DHT22;206;48.782;9.252;2023-05-23T16:20:47;23.50;20.60
439;DHT22;206;48.782;9.252;2023-05-23T16:23:13;23.60;20.80
439;DHT22;206;48.782;9.252;2023-05-23T16:25:39;23.70;20.50
439;DHT22;206;48.782;9.252;2023-05-23T16:28:05;23.70;20.70
439;DHT22;206;48.782;9.252;2023-05-23T16:30:31;23.50;20.80
439;DHT22;206;48.782;9.252;2023-05-23T16:32:56;23.50;21.10
439;DHT22;206;48.782;9.252;2023-05-23T16:35:22;23.30;20.80
439;DHT22;206;48.782;9.252;2023-05-23T16:37:48;22.90;20.80
439;DHT22;206;48.782;9.252;2023-05-23T16:40:14;22.50;21.30
439;DHT22;206;48.782;9.252;2023-05-23T16:42:39;22.40;21.70
439;DHT22;206;48.782;9.252;2023-05-23T16:45:05;22.40;22.60
439;DHT22;206;48.782;9.252;2023-05-23T16:47:35;22.50;22.90
439;DHT22;206;48.782;9.252;2023-05-23T16:50:02;22.50;23.20
439;DHT22;206;48.782;9.252;2023-05-23T16:52:29;22.60;23.30
439;DHT22;206;48.782;9.252;2023-05-23T16:54:55;22.50;23.60
439;DHT22;206;48.782;9.252;2023-05-23T16:57:21;22.30;24.30